createdAt,value
2019-01-25T00:01:06.531Z,10.23
2019-01-25T00:03:35.827Z,10.90
2019-01-25T00:06:05.939Z,10.20
2019-01-25T00:08:35.228Z,11.73
2019-01-25T00:11:04.682Z,10.13
2019-01-25T00:13:33.847Z,10.13
2019-01-25T00:16:03.501Z,10.60
2019-01-25T00:18:32.675Z,11.30
2019-01-25T00:21:02.011Z,10.93
2019-01-25T00:23:31.113Z,10.70
2019-01-25T00:26:00.246Z,11.03
2019-01-25T00:28:29.319Z,11.57
2019-01-25T00:30:58.466Z,11.13
2019-01-25T00:33:27.590Z,10.83
2019-01-25T00:35:56.748Z,11.60
2019-01-25T00:38:25.831Z,10.77
2019-01-25T00:40:55.179Z,11.13
2019-01-25T00:43:24.248Z,11.80
2019-01-25T00:45:53.359Z,11.30
2019-01-25T00:48:22.948Z,10.97
2019-01-25T00:50:52.056Z,10.53
2019-01-25T00:53:21.185Z,10.97
2019-01-25T00:55:50.387Z,11.33
2019-01-25T00:58:19.564Z,11.13
2019-01-25T01:00:49.822Z,11.40
2019-01-25T01:03:19.966Z,11.47
2019-01-25T01:05:48.968Z,11.70
2019-01-25T01:08:18.150Z,10.73
2019-01-25T01:10:47.303Z,14.60
2019-01-25T01:13:16.472Z,16.57
2019-01-25T01:15:45.560Z,17.10
2019-01-25T01:18:14.699Z,16.00
2019-01-25T01:20:43.794Z,14.70
2019-01-25T01:23:12.871Z,13.60
2019-01-25T01:25:42.241Z,14.33
2019-01-25T01:28:11.402Z,14.20
2019-01-25T01:30:40.496Z,13.80
2019-01-25T01:33:09.932Z,13.00
2019-01-25T01:35:39.019Z,12.93
2019-01-25T01:38:08.164Z,14.10
2019-01-25T01:40:37.640Z,13.57
2019-01-25T01:43:06.897Z,13.43
2019-01-25T01:45:35.937Z,13.00
2019-01-25T01:48:05.519Z,13.50
2019-01-25T01:50:34.560Z,13.07
2019-01-25T01:53:03.769Z,14.13
2019-01-25T01:55:32.848Z,13.93
2019-01-25T01:58:02.569Z,13.93
2019-01-25T02:00:31.735Z,13.77
2019-01-25T02:03:01.925Z,12.90
2019-01-25T02:05:31.092Z,12.40
2019-01-25T02:08:00.263Z,13.27
2019-01-25T02:10:29.858Z,13.03
2019-01-25T02:12:59.123Z,13.07
2019-01-25T02:15:28.183Z,12.47
2019-01-25T02:17:57.219Z,13.17
2019-01-25T02:20:30.697Z,14.23
2019-01-25T02:22:59.823Z,12.73
2019-01-25T02:25:29.112Z,13.83
2019-01-25T02:27:58.235Z,14.37
2019-01-25T02:30:27.906Z,13.47
2019-01-25T02:32:57.025Z,14.60
2019-01-25T02:35:26.192Z,13.80
2019-01-25T02:37:55.200Z,14.03
2019-01-25T02:40:26.037Z,13.93
2019-01-25T02:42:55.336Z,13.27
2019-01-25T02:45:24.508Z,13.10
2019-01-25T02:47:54.138Z,13.87
2019-01-25T02:50:23.296Z,13.63
2019-01-25T02:52:52.496Z,14.20
2019-01-25T02:55:21.640Z,13.80
2019-01-25T02:57:50.779Z,13.20
2019-01-25T03:00:25.012Z,13.00
2019-01-25T03:02:55.515Z,12.97
2019-01-25T03:05:25.606Z,13.57
2019-01-25T03:07:54.992Z,13.13
2019-01-25T03:10:28.915Z,13.20
2019-01-25T03:12:55.354Z,14.33
2019-01-25T03:15:26.187Z,14.70
2019-01-25T03:17:55.441Z,14.67
2019-01-25T03:20:26.305Z,15.00
2019-01-25T03:22:55.443Z,14.17
2019-01-25T03:25:26.420Z,13.13
2019-01-25T03:27:55.636Z,14.10
2019-01-25T03:30:26.180Z,12.97
2019-01-25T03:32:55.309Z,14.20
2019-01-25T03:35:25.604Z,13.67
2019-01-25T03:37:55.088Z,14.20
2019-01-25T03:40:26.100Z,14.20
2019-01-25T03:42:55.329Z,15.07
2019-01-25T03:45:25.311Z,14.00
2019-01-25T03:47:54.555Z,13.83
2019-01-25T03:50:25.992Z,15.60
2019-01-25T03:52:55.680Z,15.50
2019-01-25T03:55:25.326Z,14.40
2019-01-25T03:57:54.591Z,14.90
2019-01-25T04:00:25.531Z,14.73
2019-01-25T04:02:54.852Z,14.57
2019-01-25T04:05:24.721Z,13.77
2019-01-25T04:07:54.533Z,15.23
2019-01-25T04:10:25.192Z,14.00
2019-01-25T04:12:54.352Z,14.07
2019-01-25T04:15:25.506Z,14.33
2019-01-25T04:17:54.666Z,14.90
2019-01-25T04:20:24.163Z,13.80
2019-01-25T04:22:53.389Z,14.23
2019-01-25T04:25:23.069Z,13.60
2019-01-25T04:27:52.516Z,13.77
2019-01-25T04:30:26.828Z,13.93
2019-01-25T04:32:56.432Z,14.13
2019-01-25T04:35:25.640Z,14.40
2019-01-25T04:37:55.344Z,14.70
2019-01-25T04:40:24.545Z,12.80
2019-01-25T04:42:53.804Z,13.63
2019-01-25T04:45:23.252Z,14.13
2019-01-25T04:47:52.376Z,13.33
2019-01-25T04:50:23.435Z,13.60
2019-01-25T04:52:52.866Z,14.90
2019-01-25T04:55:30.078Z,13.60
2019-01-25T04:58:24.605Z,13.77
2019-01-25T05:00:54.235Z,12.90
2019-01-25T05:03:23.953Z,13.97
2019-01-25T05:05:53.560Z,13.40
2019-01-25T05:08:22.889Z,13.77
2019-01-25T05:10:52.108Z,13.17
2019-01-25T05:13:21.487Z,13.33
2019-01-25T05:15:50.704Z,12.40
2019-01-25T05:18:19.884Z,12.90
2019-01-25T05:20:50.781Z,12.50
2019-01-25T05:23:20.015Z,12.80
2019-01-25T05:25:49.322Z,12.90
2019-01-25T05:28:22.450Z,13.87
2019-01-25T05:31:02.908Z,12.00
2019-01-25T05:33:32.218Z,12.10
2019-01-25T05:36:01.339Z,12.80
2019-01-25T05:38:30.524Z,12.00
2019-01-25T05:41:00.382Z,11.67
2019-01-25T05:43:40.480Z,12.03
2019-01-25T05:46:09.684Z,11.27
2019-01-25T05:48:38.831Z,11.93
2019-01-25T05:51:07.979Z,10.93
2019-01-25T05:53:37.559Z,11.33
2019-01-25T05:56:07.175Z,11.10
2019-01-25T05:58:36.443Z,10.67
2019-01-25T06:01:06.617Z,10.93
2019-01-25T06:03:36.310Z,11.83
2019-01-25T06:06:06.937Z,10.97
2019-01-25T06:08:43.609Z,11.40
2019-01-25T06:11:11.201Z,10.57
2019-01-25T06:13:41.508Z,10.63
2019-01-25T06:16:10.690Z,10.87
2019-01-25T06:18:39.820Z,10.97
2019-01-25T06:21:09.038Z,9.77
2019-01-25T06:23:38.218Z,10.53
2019-01-25T06:26:08.538Z,10.30
2019-01-25T06:28:37.987Z,10.63
2019-01-25T06:31:07.171Z,8.90
2019-01-25T06:33:36.541Z,9.30
2019-01-25T06:36:07.729Z,9.70
2019-01-25T06:38:37.763Z,10.43
2019-01-25T06:41:07.376Z,10.27
2019-01-25T06:43:37.515Z,9.93
2019-01-25T06:46:06.873Z,10.13
2019-01-25T06:48:35.954Z,9.57
2019-01-25T06:51:06.305Z,10.40
2019-01-25T06:53:35.445Z,9.53
2019-01-25T06:56:04.610Z,10.43
2019-01-25T06:58:55.451Z,11.20
2019-01-25T07:01:29.030Z,10.03
2019-01-25T07:03:59.206Z,10.03
2019-01-25T07:06:28.338Z,10.80
2019-01-25T07:08:57.331Z,10.67
2019-01-25T07:11:26.463Z,9.73
2019-01-25T07:13:55.530Z,10.07
2019-01-25T07:16:24.611Z,10.27
2019-01-25T07:18:53.675Z,10.47
2019-01-25T07:21:22.761Z,11.13
2019-01-25T07:23:51.746Z,10.67
2019-01-25T07:26:21.350Z,10.20
2019-01-25T07:28:50.408Z,10.40
2019-01-25T07:31:19.466Z,11.40
2019-01-25T07:33:48.618Z,9.77
2019-01-25T07:36:17.859Z,10.47
2019-01-25T07:38:46.963Z,11.27
2019-01-25T07:41:16.353Z,11.50
2019-01-25T07:43:45.537Z,10.93
2019-01-25T07:46:14.627Z,11.10
2019-01-25T07:48:44.192Z,12.40
2019-01-25T07:51:13.259Z,10.33
2019-01-25T07:53:42.400Z,11.40
2019-01-25T07:56:12.050Z,10.97
2019-01-25T07:58:41.119Z,11.53
2019-01-25T08:01:10.311Z,11.47
2019-01-25T08:03:39.693Z,10.93
2019-01-25T08:06:08.744Z,11.60
2019-01-25T08:08:37.819Z,11.83
2019-01-25T08:11:06.923Z,11.20
2019-01-25T08:13:36.026Z,11.20
2019-01-25T08:16:05.134Z,11.43
2019-01-25T08:18:34.306Z,12.33
2019-01-25T08:21:03.442Z,11.13
2019-01-25T08:23:32.598Z,11.70
2019-01-25T08:26:01.716Z,11.77
2019-01-25T08:28:30.887Z,12.20
2019-01-25T08:31:00.031Z,12.27
2019-01-25T08:33:29.211Z,12.97
2019-01-25T08:35:58.335Z,12.33
2019-01-25T08:38:27.402Z,13.50
2019-01-25T08:41:15.850Z,12.73
2019-01-25T08:43:45.095Z,13.67
2019-01-25T08:46:14.184Z,15.33
2019-01-25T08:48:43.443Z,17.73
2019-01-25T08:51:12.512Z,17.00
2019-01-25T08:53:41.574Z,16.57
2019-01-25T08:56:10.675Z,16.83
2019-01-25T08:58:39.731Z,15.63
2019-01-25T09:01:08.847Z,16.03
2019-01-25T09:03:38.570Z,14.90
2019-01-25T09:06:08.533Z,14.43
2019-01-25T09:08:37.618Z,14.77
2019-01-25T09:11:06.756Z,14.23
2019-01-25T09:13:35.881Z,12.97
2019-01-25T09:16:04.974Z,14.67
2019-01-25T09:18:34.340Z,13.67
2019-01-25T09:21:03.524Z,13.00
2019-01-25T09:23:32.664Z,12.90
2019-01-25T09:26:02.662Z,12.87
2019-01-25T09:28:31.789Z,13.30
2019-01-25T09:31:00.899Z,11.83
2019-01-25T09:33:30.143Z,12.27
2019-01-25T09:35:59.218Z,12.00
2019-01-25T09:38:28.194Z,12.03
2019-01-25T09:40:57.862Z,12.33
2019-01-25T09:43:27.079Z,14.70
2019-01-25T09:45:56.798Z,12.87
2019-01-25T09:48:26.327Z,12.33
2019-01-25T09:50:55.309Z,13.90
2019-01-25T09:53:24.386Z,12.20
2019-01-25T09:55:53.498Z,12.37
2019-01-25T09:58:22.541Z,10.77
2019-01-25T10:00:55.326Z,9.90
2019-01-25T10:03:24.917Z,10.33
2019-01-25T10:05:53.970Z,11.37
2019-01-25T10:08:23.203Z,10.10
2019-01-25T10:10:52.656Z,10.93
2019-01-25T10:13:21.718Z,10.27
2019-01-25T10:15:50.818Z,11.00
2019-01-25T10:18:24.683Z,10.73
2019-01-25T10:20:50.954Z,10.67
2019-01-25T10:23:20.034Z,10.73
2019-01-25T10:25:49.198Z,9.60
2019-01-25T10:28:18.269Z,9.57
2019-01-25T10:30:47.305Z,10.67
2019-01-25T10:33:16.430Z,9.37
2019-01-25T10:35:45.666Z,9.97
2019-01-25T10:38:14.818Z,9.60
2019-01-25T10:40:44.285Z,8.83
2019-01-25T10:43:13.529Z,8.77
2019-01-25T10:45:43.409Z,9.90
2019-01-25T10:48:12.590Z,10.73
2019-01-25T10:50:41.650Z,9.27
2019-01-25T10:53:10.721Z,10.00
2019-01-25T10:55:39.782Z,9.97
2019-01-25T10:58:09.048Z,10.37
2019-01-25T11:00:38.107Z,9.57
2019-01-25T11:03:08.097Z,8.80
2019-01-25T11:05:37.106Z,8.90
2019-01-25T11:08:06.185Z,9.20
2019-01-25T11:10:35.412Z,9.50
2019-01-25T11:13:04.465Z,8.90
2019-01-25T11:15:33.510Z,8.67
2019-01-25T11:18:02.704Z,8.77
2019-01-25T11:20:31.754Z,8.40
2019-01-25T11:23:00.725Z,8.17
2019-01-25T11:25:34.966Z,7.53
2019-01-25T11:28:03.942Z,8.17
2019-01-25T11:30:32.990Z,7.70
2019-01-25T11:33:02.061Z,7.80
2019-01-25T11:35:31.089Z,7.63
2019-01-25T11:38:00.161Z,7.67
2019-01-25T11:40:31.766Z,7.60
2019-01-25T11:43:08.115Z,7.07
2019-01-25T11:45:32.290Z,6.77
2019-01-25T11:48:01.649Z,8.63
2019-01-25T11:50:30.698Z,6.97
2019-01-25T11:52:59.764Z,6.67
2019-01-25T11:55:28.822Z,7.27
2019-01-25T11:57:57.958Z,6.43
2019-01-25T12:00:28.201Z,6.97
2019-01-25T12:02:57.283Z,6.93
2019-01-25T12:05:26.344Z,6.73
2019-01-25T12:07:55.418Z,6.83
2019-01-25T12:10:26.679Z,6.53
2019-01-25T12:12:55.717Z,6.73
2019-01-25T12:15:24.694Z,7.07
2019-01-25T12:17:53.866Z,7.57
2019-01-25T12:20:27.722Z,6.63
2019-01-25T12:22:57.038Z,7.30
2019-01-25T12:25:26.335Z,7.00
2019-01-25T12:27:55.426Z,6.20
2019-01-25T12:30:26.687Z,7.20
2019-01-25T12:32:55.771Z,7.30
2019-01-25T12:35:24.829Z,6.77
2019-01-25T12:37:53.870Z,7.43
2019-01-25T12:40:22.869Z,7.57
2019-01-25T12:42:51.839Z,7.23
2019-01-25T12:45:23.479Z,6.90
2019-01-25T12:47:53.929Z,6.67
2019-01-25T12:50:25.802Z,8.03
2019-01-25T12:52:55.061Z,7.43
2019-01-25T12:55:24.059Z,6.77
2019-01-25T12:57:53.107Z,7.13
2019-01-25T13:00:23.664Z,7.17
2019-01-25T13:02:53.822Z,7.30
2019-01-25T13:05:23.550Z,7.27
2019-01-25T13:07:52.597Z,6.33
2019-01-25T13:10:22.169Z,6.90
2019-01-25T13:12:51.612Z,6.97
2019-01-25T13:15:20.668Z,7.47
2019-01-25T13:17:49.752Z,6.67
2019-01-25T13:20:21.006Z,7.20
2019-01-25T13:22:50.053Z,7.13
2019-01-25T13:25:19.137Z,6.80
2019-01-25T13:27:49.409Z,7.17
2019-01-25T13:30:21.637Z,6.93
2019-01-25T13:32:50.690Z,7.23
2019-01-25T13:35:20.068Z,6.90
2019-01-25T13:37:49.378Z,7.27
2019-01-25T13:40:19.753Z,6.10
2019-01-25T13:42:48.809Z,6.13
2019-01-25T13:45:18.535Z,6.17
2019-01-25T13:47:47.946Z,5.93
2019-01-25T13:50:19.037Z,6.40
2019-01-25T13:52:48.110Z,6.17
2019-01-25T13:55:17.382Z,6.77
2019-01-25T13:57:46.427Z,6.17
2019-01-25T14:00:24.547Z,5.60
2019-01-25T14:02:53.583Z,5.80
2019-01-25T14:05:22.647Z,5.73
2019-01-25T14:07:51.658Z,6.00
2019-01-25T14:10:23.006Z,5.97
2019-01-25T14:12:52.070Z,5.30
2019-01-25T14:15:21.134Z,5.07
2019-01-25T14:17:50.174Z,5.93
2019-01-25T14:20:23.376Z,6.20
2019-01-25T14:22:52.601Z,5.63
2019-01-25T14:25:21.646Z,5.33
2019-01-25T14:27:50.702Z,6.53
2019-01-25T14:30:49.982Z,5.83
2019-01-25T14:33:19.282Z,5.57
2019-01-25T14:35:48.253Z,6.50
2019-01-25T14:38:18.192Z,6.10
2019-01-25T14:40:47.291Z,6.03
2019-01-25T14:43:16.331Z,5.77
2019-01-25T14:45:45.445Z,5.93
2019-01-25T14:48:14.657Z,6.33
2019-01-25T14:50:43.703Z,5.47
2019-01-25T14:53:13.363Z,5.63
2019-01-25T14:55:42.478Z,5.63
2019-01-25T14:58:11.514Z,5.87
2019-01-25T15:00:41.072Z,6.40
2019-01-25T15:03:10.118Z,5.73
2019-01-25T15:05:39.101Z,6.00
2019-01-25T15:08:08.203Z,5.23
2019-01-25T15:10:37.252Z,5.80
2019-01-25T15:13:07.542Z,5.73
2019-01-25T15:15:36.637Z,5.67
2019-01-25T15:18:05.974Z,5.83
2019-01-25T15:20:34.954Z,5.80
2019-01-25T15:23:04.050Z,5.47
2019-01-25T15:25:33.178Z,5.23
2019-01-25T15:28:02.239Z,6.20
2019-01-25T15:30:32.804Z,5.87
2019-01-25T15:33:01.903Z,6.03
2019-01-25T15:35:31.468Z,6.57
2019-01-25T15:38:01.063Z,5.70
2019-01-25T15:40:30.338Z,5.70
2019-01-25T15:42:59.423Z,5.23
2019-01-25T15:45:28.650Z,5.13
2019-01-25T15:47:57.882Z,4.77
2019-01-25T15:50:28.839Z,5.43
2019-01-25T15:52:57.862Z,5.37
2019-01-25T15:55:27.178Z,6.00
2019-01-25T15:57:56.154Z,5.47
2019-01-25T16:00:26.404Z,5.33
2019-01-25T16:02:55.450Z,5.53
2019-01-25T16:05:24.662Z,4.77
2019-01-25T16:07:53.774Z,5.47
2019-01-25T16:10:22.832Z,5.07
2019-01-25T16:12:51.986Z,5.53
2019-01-25T16:15:23.311Z,5.53
2019-01-25T16:17:52.361Z,5.47
2019-01-25T16:20:21.431Z,5.43
2019-01-25T16:22:50.606Z,5.70
2019-01-25T16:25:22.032Z,5.53
2019-01-25T16:27:51.345Z,6.27
2019-01-25T16:30:22.742Z,5.13
2019-01-25T16:32:51.800Z,5.37
2019-01-25T16:35:20.861Z,5.53
2019-01-25T16:37:50.881Z,5.70
2019-01-25T16:40:20.881Z,5.03
2019-01-25T16:42:49.914Z,5.17
2019-01-25T16:45:24.611Z,5.07
2019-01-25T16:47:53.988Z,4.90
2019-01-25T16:50:24.047Z,5.17
2019-01-25T16:52:53.224Z,5.30
2019-01-25T16:55:22.278Z,5.40
2019-01-25T16:57:51.262Z,5.17
2019-01-25T17:00:46.633Z,5.37
2019-01-25T17:03:15.790Z,4.97
2019-01-25T17:05:44.834Z,4.93
2019-01-25T17:08:13.915Z,5.50
2019-01-25T17:10:42.994Z,5.03
2019-01-25T17:13:12.050Z,5.30
2019-01-25T17:15:41.255Z,5.63
2019-01-25T17:18:10.593Z,5.30
2019-01-25T17:20:39.680Z,5.77
2019-01-25T17:23:09.123Z,5.87
2019-01-25T17:25:38.205Z,5.50
2019-01-25T17:28:08.713Z,5.57
2019-01-25T17:30:38.998Z,5.40
2019-01-25T17:33:08.044Z,6.03
2019-01-25T17:35:37.100Z,5.47
2019-01-25T17:38:07.242Z,5.57
2019-01-25T17:40:46.131Z,4.90
2019-01-25T17:43:09.947Z,5.70
2019-01-25T17:45:39.128Z,5.77
2019-01-25T17:48:08.357Z,5.27
2019-01-25T17:50:37.540Z,5.00
2019-01-25T17:53:07.272Z,4.40
2019-01-25T17:55:36.317Z,4.40
2019-01-25T17:58:08.040Z,4.70
2019-01-25T18:00:55.797Z,4.77
2019-01-25T18:03:24.872Z,4.80
2019-01-25T18:05:53.930Z,4.43
2019-01-25T18:08:23.006Z,4.90
2019-01-25T18:10:52.070Z,4.73
2019-01-25T18:13:21.119Z,4.87
2019-01-25T18:15:50.194Z,4.53
2019-01-25T18:18:19.174Z,3.80
2019-01-25T18:20:48.215Z,4.50
2019-01-25T18:23:17.986Z,4.60
2019-01-25T18:26:08.058Z,5.07
2019-01-25T18:28:49.938Z,4.10
2019-01-25T18:31:21.435Z,4.40
2019-01-25T18:33:50.414Z,4.27
2019-01-25T18:36:19.502Z,3.73
2019-01-25T18:38:48.557Z,3.90
2019-01-25T18:41:17.601Z,3.70
2019-01-25T18:43:47.235Z,4.07
2019-01-25T18:46:16.201Z,3.70
2019-01-25T18:48:45.244Z,3.97
2019-01-25T18:51:14.357Z,3.60
2019-01-25T18:53:43.576Z,3.53
2019-01-25T18:56:14.809Z,3.20
2019-01-25T18:58:44.978Z,3.10
2019-01-25T19:01:14.402Z,3.50
2019-01-25T19:03:43.473Z,3.30
2019-01-25T19:06:12.547Z,3.80
2019-01-25T19:08:41.621Z,3.70
2019-01-25T19:11:10.689Z,3.47
2019-01-25T19:13:39.785Z,3.50
2019-01-25T19:16:08.873Z,3.13
2019-01-25T19:18:37.942Z,3.73
2019-01-25T19:21:07.110Z,3.53
2019-01-25T19:23:36.155Z,3.20
2019-01-25T19:26:05.220Z,2.80
2019-01-25T19:28:34.310Z,3.50
2019-01-25T19:31:03.386Z,3.00
2019-01-25T19:33:32.455Z,2.97
2019-01-25T19:36:01.537Z,3.30
2019-01-25T19:38:30.583Z,2.73
2019-01-25T19:40:59.656Z,2.80
2019-01-25T19:43:29.032Z,2.70
2019-01-25T19:45:58.097Z,2.70
2019-01-25T19:48:27.126Z,2.87
2019-01-25T19:50:56.122Z,2.50
2019-01-25T19:53:25.810Z,2.50
2019-01-25T19:55:54.850Z,3.07
2019-01-25T19:58:24.091Z,3.13
2019-01-25T20:00:53.161Z,2.77
2019-01-25T20:03:22.172Z,2.60
2019-01-25T20:05:51.270Z,2.67
2019-01-25T20:08:20.315Z,2.40
2019-01-25T20:10:49.379Z,2.77
2019-01-25T20:13:18.468Z,2.80
2019-01-25T20:15:47.513Z,2.77
2019-01-25T20:18:16.607Z,2.67
2019-01-25T20:20:45.837Z,2.50
2019-01-25T20:23:14.891Z,2.57
2019-01-25T20:25:43.939Z,2.40
2019-01-25T20:28:12.942Z,2.00
2019-01-25T20:30:49.430Z,2.60
2019-01-25T20:33:12.806Z,2.47
2019-01-25T20:35:42.810Z,2.30
2019-01-25T20:38:12.006Z,2.30
2019-01-25T20:40:41.086Z,1.93
2019-01-25T20:43:10.226Z,2.33
2019-01-25T20:45:39.938Z,2.40
2019-01-25T20:48:09.235Z,2.30
2019-01-25T20:50:38.370Z,2.57
2019-01-25T20:53:08.935Z,2.47
2019-01-25T20:55:38.006Z,2.20
2019-01-25T20:58:07.767Z,2.50
2019-01-25T21:00:38.199Z,2.40
2019-01-25T21:03:09.402Z,2.27
2019-01-25T21:05:38.523Z,2.50
2019-01-25T21:08:07.548Z,2.50
2019-01-25T21:10:36.542Z,2.63
2019-01-25T21:13:06.065Z,2.27
2019-01-25T21:15:35.635Z,2.40
2019-01-25T21:18:05.280Z,2.93
2019-01-25T21:20:40.019Z,3.53
2019-01-25T21:23:09.054Z,3.00
2019-01-25T21:25:38.118Z,2.80
2019-01-25T21:28:07.154Z,2.80
2019-01-25T21:30:36.268Z,2.63
2019-01-25T21:33:05.509Z,3.33
2019-01-25T21:35:34.568Z,2.87
2019-01-25T21:38:03.663Z,3.07
2019-01-25T21:40:33.377Z,3.00
2019-01-25T21:43:02.567Z,3.07
2019-01-25T21:45:33.344Z,3.00
2019-01-25T21:48:03.934Z,3.13
2019-01-25T21:50:35.313Z,2.93
2019-01-25T21:53:04.865Z,3.07
2019-01-25T21:55:34.526Z,2.97
2019-01-25T21:58:05.405Z,3.03
2019-01-25T22:00:34.570Z,3.47
2019-01-25T22:03:03.629Z,3.07
2019-01-25T22:05:32.702Z,3.30
2019-01-25T22:08:01.763Z,2.73
2019-01-25T22:10:36.273Z,2.83
2019-01-25T22:13:05.371Z,3.43
2019-01-25T22:15:34.736Z,2.90
2019-01-25T22:18:04.269Z,3.47
2019-01-25T22:20:33.320Z,3.37
2019-01-25T22:23:02.362Z,3.90
2019-01-25T22:25:31.438Z,3.07
2019-01-25T22:28:00.755Z,3.50
2019-01-25T22:30:29.817Z,3.40
2019-01-25T22:32:58.870Z,3.20
2019-01-25T22:35:27.835Z,3.60
2019-01-25T22:37:56.898Z,2.90
2019-01-25T22:40:28.079Z,3.20
2019-01-25T22:42:57.306Z,3.43
2019-01-25T22:45:28.057Z,2.90
2019-01-25T22:47:58.066Z,2.90
2019-01-25T22:50:28.778Z,3.57
2019-01-25T22:52:57.998Z,3.20
2019-01-25T22:55:27.964Z,2.80
2019-01-25T22:57:56.923Z,3.30
2019-01-25T23:00:53.261Z,2.70
2019-01-25T23:03:25.816Z,3.23
2019-01-25T23:06:37.875Z,3.47
2019-01-25T23:09:11.840Z,3.10
2019-01-25T23:11:40.921Z,3.23
2019-01-25T23:14:10.005Z,2.90
2019-01-25T23:16:39.047Z,2.60
2019-01-25T23:19:08.102Z,3.40
2019-01-25T23:21:37.192Z,3.17
2019-01-25T23:24:06.246Z,3.13
2019-01-25T23:26:35.326Z,2.93
2019-01-25T23:29:04.430Z,3.13
2019-01-25T23:31:33.483Z,2.90
2019-01-25T23:34:02.523Z,3.00
2019-01-25T23:36:31.595Z,2.57
2019-01-25T23:39:00.629Z,2.57
2019-01-25T23:41:29.682Z,2.60
2019-01-25T23:43:58.747Z,3.07
2019-01-25T23:46:27.786Z,2.73
2019-01-25T23:48:56.814Z,2.53
2019-01-25T23:51:25.921Z,2.67
2019-01-25T23:53:55.322Z,2.60
2019-01-25T23:56:24.854Z,2.57
2019-01-25T23:58:53.925Z,2.80
